sensor_id;sensor_type;location;lat;lon;timestamp;pressure;altitude;pressure_sealevel;temperature;humidity
55010;BME280;40903;51.638;7.528;2024-02-15T00:02:13;101148.44;;;12.10;100.00
55010;BME280;40903;51.638;7.528;2024-02-15T00:04:39;101155.56;;;12.06;100.00
55010;BME280;40903;51.638;7.528;2024-02-15T00:07:05;101152.31;;;12.04;100.00
55010;BME280;40903;51.638;7.528;2024-02-15T00:09:31;101162.66;;;12.07;100.00
55010;BME280;40903;51.638;7.528;2024-02-15T00:11:56;101159.41;;;12.05;100.00
55010;BME280;40903;51.638;7.528;2024-02-15T00:14:22;101158.59;;;12.05;100.00
55010;BME280;40903;51.638;7.528;2024-02-15T00:16:48;101160.50;;;12.04;100.00
55010;BME280;40903;51.638;7.528;2024-02-15T00:19:13;101161.88;;;12.07;100.00
55010;BME280;40903;51.638;7.528;2024-02-15T00:21:45;101161.63;;;12.03;100.00
55010;BME280;40903;51.638;7.528;2024-02-15T00:24:12;101160.00;;;12.02;100.00
55010;BME280;40903;51.638;7.528;2024-02-15T00:26:40;101155.13;;;11.99;100.00
55010;BME280;40903;51.638;7.528;2024-02-15T00:29:05;101168.72;;;12.04;100.00
55010;BME280;40903;51.638;7.528;2024-02-15T00:31:30;101168.97;;;12.08;100.00
55010;BME280;40903;51.638;7.528;2024-02-15T00:33:56;101155.03;;;12.04;100.00
55010;BME280;40903;51.638;7.528;2024-02-15T00:36:21;101164.66;;;12.02;100.00
55010;BME280;40903;51.638;7.528;2024-02-15T00:38:48;101163.84;;;12.01;100.00
55010;BME280;40903;51.638;7.528;2024-02-15T00:41:13;101162.47;;;11.99;100.00
55010;BME280;40903;51.638;7.528;2024-02-15T00:43:39;101168.47;;;12.01;100.00
55010;BME280;40903;51.638;7.528;2024-02-15T00:46:04;101163.25;;;12.04;100.00
55010;BME280;40903;51.638;7.528;2024-02-15T00:48:30;101160.28;;;12.01;100.00
55010;BME280;40903;51.638;7.528;2024-02-15T00:50:56;101169.56;;;12.00;100.00
55010;BME280;40903;51.638;7.528;2024-02-15T00:53:22;101165.53;;;11.97;100.00
55010;BME280;40903;51.638;7.528;2024-02-15T00:55:47;101162.47;;;11.99;100.00
55010;BME280;40903;51.638;7.528;2024-02-15T00:58:13;101171.50;;;11.99;100.00
55010;BME280;40903;51.638;7.528;2024-02-15T01:00:38;101172.63;;;11.98;100.00
55010;BME280;40903;51.638;7.528;2024-02-15T01:03:04;101173.13;;;12.00;100.00
55010;BME280;40903;51.638;7.528;2024-02-15T01:05:29;101167.66;;;12.00;100.00
55010;BME280;40903;51.638;7.528;2024-02-15T01:07:56;101168.25;;;11.97;100.00
55010;BME280;40903;51.638;7.528;2024-02-15T01:10:22;101168.78;;;11.99;100.00
55010;BME280;40903;51.638;7.528;2024-02-15T01:12:49;101174.53;;;11.98;100.00
55010;BME280;40903;51.638;7.528;2024-02-15T01:15:15;101173.19;;;11.95;100.00
55010;BME280;40903;51.638;7.528;2024-02-15T01:17:44;101181.41;;;11.95;100.00
55010;BME280;40903;51.638;7.528;2024-02-15T01:20:10;101169.63;;;11.95;100.00
55010;BME280;40903;51.638;7.528;2024-02-15T01:22:36;101167.72;;;11.95;100.00
55010;BME280;40903;51.638;7.528;2024-02-15T01:25:01;101176.16;;;11.99;100.00
55010;BME280;40903;51.638;7.528;2024-02-15T01:27:27;101175.59;;;12.02;100.00
55010;BME280;40903;51.638;7.528;2024-02-15T01:29:56;101181.63;;;11.99;100.00
55010;BME280;40903;51.638;7.528;2024-02-15T01:32:22;101172.88;;;12.02;100.00
55010;BME280;40903;51.638;7.528;2024-02-15T01:34:47;101176.97;;;11.99;100.00
55010;BME280;40903;51.638;7.528;2024-02-15T01:37:13;101167.41;;;11.97;100.00
55010;BME280;40903;51.638;7.528;2024-02-15T01:39:39;101166.03;;;11.99;100.00
55010;BME280;40903;51.638;7.528;2024-02-15T01:42:05;101163.59;;;11.98;100.00
55010;BME280;40903;51.638;7.528;2024-02-15T01:44:31;101170.16;;;11.97;100.00
55010;BME280;40903;51.638;7.528;2024-02-15T01:46:57;101166.31;;;11.98;100.00
55010;BME280;40903;51.638;7.528;2024-02-15T01:49:25;101165.00;;;11.95;100.00
55010;BME280;40903;51.638;7.528;2024-02-15T01:51:53;101167.19;;;11.93;100.00
55010;BME280;40903;51.638;7.528;2024-02-15T01:54:22;101159.22;;;11.97;100.00
55010;BME280;40903;51.638;7.528;2024-02-15T01:56:48;101166.09;;;11.94;100.00
55010;BME280;40903;51.638;7.528;2024-02-15T01:59:15;101162.78;;;11.97;100.00
55010;BME280;40903;51.638;7.528;2024-02-15T02:01:41;101164.09;;;12.00;100.00
55010;BME280;40903;51.638;7.528;2024-02-15T02:04:08;101169.56;;;12.00;100.00
55010;BME280;40903;51.638;7.528;2024-02-15T02:06:34;101155.13;;;11.99;100.00
55010;BME280;40903;51.638;7.528;2024-02-15T02:09:00;101161.97;;;11.97;100.00
55010;BME280;40903;51.638;7.528;2024-02-15T02:11:27;101149.41;;;11.96;100.00
55010;BME280;40903;51.638;7.528;2024-02-15T02:13:55;101155.38;;;11.98;100.00
55010;BME280;40903;51.638;7.528;2024-02-15T02:16:25;101151.28;;;12.00;100.00
55010;BME280;40903;51.638;7.528;2024-02-15T02:18:51;101152.06;;;12.01;100.00
55010;BME280;40903;51.638;7.528;2024-02-15T02:21:17;101146.31;;;12.02;100.00
55010;BME280;40903;51.638;7.528;2024-02-15T02:23:45;101138.41;;;12.01;100.00
55010;BME280;40903;51.638;7.528;2024-02-15T02:26:16;101133.50;;;12.03;100.00
55010;BME280;40903;51.638;7.528;2024-02-15T02:28:41;101136.50;;;12.01;100.00
55010;BME280;40903;51.638;7.528;2024-02-15T02:31:08;101129.34;;;12.05;100.00
55010;BME280;40903;51.638;7.528;2024-02-15T02:33:37;101135.13;;;12.04;100.00
55010;BME280;40903;51.638;7.528;2024-02-15T02:36:02;101132.06;;;12.05;100.00
55010;BME280;40903;51.638;7.528;2024-02-15T02:38:28;101125.50;;;12.06;100.00
55010;BME280;40903;51.638;7.528;2024-02-15T02:40:53;101132.91;;;12.06;100.00
55010;BME280;40903;51.638;7.528;2024-02-15T02:43:19;101137.53;;;12.05;100.00
55010;BME280;40903;51.638;7.528;2024-02-15T02:45:44;101130.44;;;12.04;100.00
55010;BME280;40903;51.638;7.528;2024-02-15T02:48:11;101129.94;;;12.02;100.00
55010;BME280;40903;51.638;7.528;2024-02-15T02:50:37;101129.41;;;12.00;100.00
55010;BME280;40903;51.638;7.528;2024-02-15T02:53:03;101129.41;;;12.00;100.00
55010;BME280;40903;51.638;7.528;2024-02-15T02:55:28;101136.50;;;12.01;100.00
55010;BME280;40903;51.638;7.528;2024-02-15T02:57:54;101135.13;;;12.04;100.00
55010;BME280;40903;51.638;7.528;2024-02-15T03:00:20;101132.38;;;12.04;100.00
55010;BME280;40903;51.638;7.528;2024-02-15T03:02:47;101122.31;;;11.99;100.00
55010;BME280;40903;51.638;7.528;2024-02-15T03:05:12;101125.31;;;11.98;100.00
55010;BME280;40903;51.638;7.528;2024-02-15T03:07:41;101125.56;;;12.01;100.00
55010;BME280;40903;51.638;7.528;2024-02-15T03:10:07;101122.00;;;12.01;100.00
55010;BME280;40903;51.638;7.528;2024-02-15T03:12:37;101121.19;;;12.00;100.00
55010;BME280;40903;51.638;7.528;2024-02-15T03:15:06;101110.78;;;12.02;100.00
55010;BME280;40903;51.638;7.528;2024-02-15T03:17:43;101117.38;;;12.01;100.00
55010;BME280;40903;51.638;7.528;2024-02-15T03:20:10;101118.47;;;12.00;100.00
55010;BME280;40903;51.638;7.528;2024-02-15T03:22:56;101114.34;;;12.03;100.00
55010;BME280;40903;51.638;7.528;2024-02-15T03:25:22;101112.41;;;12.03;100.00
55010;BME280;40903;51.638;7.528;2024-02-15T03:27:51;101116.25;;;12.02;100.00
55010;BME280;40903;51.638;7.528;2024-02-15T03:30:21;101102.59;;;12.02;100.00
55010;BME280;40903;51.638;7.528;2024-02-15T03:32:47;101096.03;;;12.03;100.00
55010;BME280;40903;51.638;7.528;2024-02-15T03:35:17;101101.25;;;12.00;100.00
55010;BME280;40903;51.638;7.528;2024-02-15T03:37:43;101102.88;;;12.01;100.00
55010;BME280;40903;51.638;7.528;2024-02-15T03:40:09;101099.34;;;12.00;100.00
55010;BME280;40903;51.638;7.528;2024-02-15T03:42:35;101104.81;;;12.00;100.00
55010;BME280;40903;51.638;7.528;2024-02-15T03:45:05;101110.28;;;12.00;100.00
55010;BME280;40903;51.638;7.528;2024-02-15T03:47:34;101112.19;;;12.00;100.00
55010;BME280;40903;51.638;7.528;2024-02-15T03:50:04;101119.06;;;11.97;100.00
55010;BME280;40903;51.638;7.528;2024-02-15T03:52:30;101124.53;;;11.97;100.00
55010;BME280;40903;51.638;7.528;2024-02-15T03:54:57;101110.03;;;11.97;100.00
55010;BME280;40903;51.638;7.528;2024-02-15T03:57:26;101104.88;;;11.95;100.00
55010;BME280;40903;51.638;7.528;2024-02-15T03:59:52;101103.25;;;11.94;100.00
55010;BME280;40903;51.638;7.528;2024-02-15T04:02:23;101102.69;;;11.92;100.00
55010;BME280;40903;51.638;7.528;2024-02-15T04:04:55;101100.28;;;11.91;100.00
55010;BME280;40903;51.638;7.528;2024-02-15T04:07:23;101091.75;;;11.92;100.00
55010;BME280;40903;51.638;7.528;2024-02-15T04:09:52;101099.16;;;11.92;100.00
55010;BME280;40903;51.638;7.528;2024-02-15T04:12:18;101095.59;;;11.91;100.00
55010;BME280;40903;51.638;7.528;2024-02-15T04:14:44;101103.81;;;11.91;100.00
55010;BME280;40903;51.638;7.528;2024-02-15T04:17:13;101105.72;;;11.91;100.00
55010;BME280;40903;51.638;7.528;2024-02-15T04:19:49;101103.81;;;11.91;100.00
55010;BME280;40903;51.638;7.528;2024-02-15T04:22:19;101103.00;;;11.91;100.00
55010;BME280;40903;51.638;7.528;2024-02-15T04:24:44;101099.75;;;11.89;100.00
55010;BME280;40903;51.638;7.528;2024-02-15T04:27:10;101105.44;;;11.92;100.00
55010;BME280;40903;51.638;7.528;2024-02-15T04:29:38;101103.81;;;11.91;100.00
55010;BME280;40903;51.638;7.528;2024-02-15T04:32:06;101103.00;;;11.91;100.00
55010;BME280;40903;51.638;7.528;2024-02-15T04:34:36;101101.59;;;11.93;100.00
55010;BME280;40903;51.638;7.528;2024-02-15T04:37:02;101102.69;;;11.92;100.00
55010;BME280;40903;51.638;7.528;2024-02-15T04:39:34;101095.31;;;11.93;100.00
55010;BME280;40903;51.638;7.528;2024-02-15T04:42:01;101089.03;;;11.92;100.00
55010;BME280;40903;51.638;7.528;2024-02-15T04:44:27;101094.81;;;11.91;100.00
55010;BME280;40903;51.638;7.528;2024-02-15T04:46:53;101092.06;;;11.91;100.00
55010;BME280;40903;51.638;7.528;2024-02-15T04:49:20;101096.19;;;11.88;100.00
55010;BME280;40903;51.638;7.528;2024-02-15T04:51:46;101095.66;;;11.86;100.00
55010;BME280;40903;51.638;7.528;2024-02-15T04:54:14;101091.59;;;11.84;100.00
55010;BME280;40903;51.638;7.528;2024-02-15T04:56:40;101095.72;;;11.81;100.00
55010;BME280;40903;51.638;7.528;2024-02-15T04:59:09;101083.69;;;11.82;100.00
55010;BME280;40903;51.638;7.528;2024-02-15T05:01:41;101081.22;;;11.81;100.00
55010;BME280;40903;51.638;7.528;2024-02-15T05:04:11;101083.16;;;11.80;100.00
55010;BME280;40903;51.638;7.528;2024-02-15T05:06:38;101086.19;;;11.79;100.00
55010;BME280;40903;51.638;7.528;2024-02-15T05:09:04;101082.94;;;11.77;100.00
55010;BME280;40903;51.638;7.528;2024-02-15T05:11:35;101083.19;;;11.75;100.00
55010;BME280;40903;51.638;7.528;2024-02-15T05:14:04;101080.78;;;11.74;100.00
55010;BME280;40903;51.638;7.528;2024-02-15T05:16:32;101085.41;;;11.73;100.00
55010;BME280;40903;51.638;7.528;2024-02-15T05:18:58;101085.41;;;11.73;100.00
55010;BME280;40903;51.638;7.528;2024-02-15T05:21:23;101083.00;;;11.72;100.00
55010;BME280;40903;51.638;7.528;2024-02-15T05:23:49;101081.34;;;11.71;100.00
55010;BME280;40903;51.638;7.528;2024-02-15T05:26:14;101077.28;;;11.69;100.00
55010;BME280;40903;51.638;7.528;2024-02-15T05:28:48;101077.28;;;11.69;100.00
55010;BME280;40903;51.638;7.528;2024-02-15T05:31:17;101076.25;;;11.65;100.00
55010;BME280;40903;51.638;7.528;2024-02-15T05:33:43;101078.41;;;11.63;100.00
55010;BME280;40903;51.638;7.528;2024-02-15T05:36:12;101081.44;;;11.61;100.00
55010;BME280;40903;51.638;7.528;2024-02-15T05:38:38;101063.72;;;11.59;100.00
55010;BME280;40903;51.638;7.528;2024-02-15T05:41:04;101074.94;;;11.57;100.00
55010;BME280;40903;51.638;7.528;2024-02-15T05:43:30;101069.72;;;11.56;100.00
55010;BME280;40903;51.638;7.528;2024-02-15T05:45:57;101062.13;;;11.53;100.00
55010;BME280;40903;51.638;7.528;2024-02-15T05:48:24;101061.28;;;11.52;100.00
55010;BME280;40903;51.638;7.528;2024-02-15T05:50:49;101053.41;;;11.51;100.00
55010;BME280;40903;51.638;7.528;2024-02-15T05:53:15;101050.13;;;11.49;100.00
55010;BME280;40903;51.638;7.528;2024-02-15T05:55:41;101052.03;;;11.48;100.00
55010;BME280;40903;51.638;7.528;2024-02-15T05:58:09;101051.78;;;11.50;100.00
55010;BME280;40903;51.638;7.528;2024-02-15T06:00:37;101046.31;;;11.50;100.00
55010;BME280;40903;51.638;7.528;2024-02-15T06:03:04;101050.34;;;11.52;100.00
55010;BME280;40903;51.638;7.528;2024-02-15T06:05:31;101051.19;;;11.53;100.00
55010;BME280;40903;51.638;7.528;2024-02-15T06:07:57;101060.97;;;11.59;100.00
55010;BME280;40903;51.638;7.528;2024-02-15T06:10:24;101053.63;;;11.59;100.00
55010;BME280;40903;51.638;7.528;2024-02-15T06:12:51;101056.88;;;11.61;100.00
55010;BME280;40903;51.638;7.528;2024-02-15T06:15:16;101062.03;;;11.63;100.00
55010;BME280;40903;51.638;7.528;2024-02-15T06:17:42;101059.84;;;11.65;100.00
55010;BME280;40903;51.638;7.528;2024-02-15T06:20:14;101060.06;;;11.68;100.00
55010;BME280;40903;51.638;7.528;2024-02-15T06:22:40;101072.06;;;11.72;100.00
55010;BME280;40903;51.638;7.528;2024-02-15T06:25:06;101070.13;;;11.73;100.00
55010;BME280;40903;51.638;7.528;2024-02-15T06:27:32;101066.28;;;11.73;100.00
55010;BME280;40903;51.638;7.528;2024-02-15T06:29:58;101062.97;;;11.76;100.00
55010;BME280;40903;51.638;7.528;2024-02-15T06:32:42;101069.50;;;11.80;100.00
55010;BME280;40903;51.638;7.528;2024-02-15T06:35:27;101069.50;;;11.80;100.00
55010;BME280;40903;51.638;7.528;2024-02-15T06:38:11;101069.44;;;11.85;100.00
55010;BME280;40903;51.638;7.528;2024-02-15T06:40:55;101066.72;;;11.85;100.00
55010;BME280;40903;51.638;7.528;2024-02-15T06:43:20;101068.06;;;11.88;100.00
55010;BME280;40903;51.638;7.528;2024-02-15T06:45:46;101077.88;;;11.89;100.00
55010;BME280;40903;51.638;7.528;2024-02-15T06:48:12;101075.09;;;11.94;100.00
55010;BME280;40903;51.638;7.528;2024-02-15T06:50:38;101073.97;;;11.95;100.00
55010;BME280;40903;51.638;7.528;2024-02-15T06:53:04;101074.75;;;12.00;100.00
55010;BME280;40903;51.638;7.528;2024-02-15T06:55:30;101082.66;;;12.02;100.00
55010;BME280;40903;51.638;7.528;2024-02-15T06:57:56;101081.84;;;12.01;100.00
55010;BME280;40903;51.638;7.528;2024-02-15T07:00:22;101088.94;;;12.02;100.00
55010;BME280;40903;51.638;7.528;2024-02-15T07:02:47;101089.97;;;12.06;100.00
55010;BME280;40903;51.638;7.528;2024-02-15T07:05:14;101091.06;;;12.05;100.00
55010;BME280;40903;51.638;7.528;2024-02-15T07:07:39;101097.06;;;12.07;100.00
55010;BME280;40903;51.638;7.528;2024-02-15T07:10:08;101093.22;;;12.08;100.00
55010;BME280;40903;51.638;7.528;2024-02-15T07:12:34;101091.06;;;12.05;100.00
55010;BME280;40903;51.638;7.528;2024-02-15T07:14:59;101094.63;;;12.06;100.00
55010;BME280;40903;51.638;7.528;2024-02-15T07:17:27;101094.03;;;12.09;100.00
55010;BME280;40903;51.638;7.528;2024-02-15T07:19:53;101098.16;;;12.06;100.00
55010;BME280;40903;51.638;7.528;2024-02-15T07:22:18;101096.25;;;12.07;100.00
55010;BME280;40903;51.638;7.528;2024-02-15T07:24:44;101099.00;;;12.07;100.00
55010;BME280;40903;51.638;7.528;2024-02-15T07:27:09;101097.06;;;12.07;100.00
55010;BME280;40903;51.638;7.528;2024-02-15T07:29:35;101103.94;;;12.05;100.00
55010;BME280;40903;51.638;7.528;2024-02-15T07:32:04;101095.44;;;12.06;100.00
55010;BME280;40903;51.638;7.528;2024-02-15T07:34:32;101096.25;;;12.07;100.00
55010;BME280;40903;51.638;7.528;2024-02-15T07:37:02;101098.47;;;12.05;100.00
55010;BME280;40903;51.638;7.528;2024-02-15T07:39:28;101095.75;;;12.05;100.00
55010;BME280;40903;51.638;7.528;2024-02-15T07:41:54;101083.97;;;12.04;100.00
55010;BME280;40903;51.638;7.528;2024-02-15T07:44:21;101075.50;;;12.06;100.00
55010;BME280;40903;51.638;7.528;2024-02-15T07:46:50;101065.69;;;12.05;100.00
55010;BME280;40903;51.638;7.528;2024-02-15T07:49:16;101059.38;;;12.04;100.00
55010;BME280;40903;51.638;7.528;2024-02-15T07:51:43;101053.16;;;11.99;100.00
55010;BME280;40903;51.638;7.528;2024-02-15T07:54:09;101042.53;;;11.97;100.00
55010;BME280;40903;51.638;7.528;2024-02-15T07:56:36;101029.97;;;11.96;100.00
55010;BME280;40903;51.638;7.528;2024-02-15T07:59:01;101010.09;;;11.91;100.00
55010;BME280;40903;51.638;7.528;2024-02-15T08:01:28;101005.50;;;11.86;100.00
55010;BME280;40903;51.638;7.528;2024-02-15T08:03:55;100993.22;;;11.84;100.00
55010;BME280;40903;51.638;7.528;2024-02-15T08:06:22;101012.66;;;11.82;100.00
55010;BME280;40903;51.638;7.528;2024-02-15T08:08:50;101011.03;;;11.81;100.00
55010;BME280;40903;51.638;7.528;2024-02-15T08:11:17;101018.63;;;11.84;100.00
55010;BME280;40903;51.638;7.528;2024-02-15T08:13:48;101023.56;;;11.82;100.00
55010;BME280;40903;51.638;7.528;2024-02-15T08:16:22;101022.75;;;11.82;100.00
55010;BME280;40903;51.638;7.528;2024-02-15T08:18:48;101024.63;;;11.86;100.00
55010;BME280;40903;51.638;7.528;2024-02-15T08:21:17;101027.59;;;11.90;100.00
55010;BME280;40903;51.638;7.528;2024-02-15T08:23:43;101034.38;;;11.92;100.00
55010;BME280;40903;51.638;7.528;2024-02-15T08:26:09;101034.34;;;11.97;100.00
55010;BME280;40903;51.638;7.528;2024-02-15T08:28:38;101048.50;;;11.99;100.00
55010;BME280;40903;51.638;7.528;2024-02-15T08:31:06;101042.19;;;12.04;100.00
55010;BME280;40903;51.638;7.528;2024-02-15T08:33:35;101052.28;;;12.03;100.00
55010;BME280;40903;51.638;7.528;2024-02-15T08:36:04;101047.84;;;12.07;100.00
55010;BME280;40903;51.638;7.528;2024-02-15T08:38:32;101042.88;;;12.14;100.00
55010;BME280;40903;51.638;7.528;2024-02-15T08:40:59;101049.38;;;12.18;100.00
55010;BME280;40903;51.638;7.528;2024-02-15T08:43:25;101055.88;;;12.22;100.00
55010;BME280;40903;51.638;7.528;2024-02-15T08:45:50;101056.09;;;12.26;100.00
55010;BME280;40903;51.638;7.528;2024-02-15T08:48:15;101051.47;;;12.26;100.00
55010;BME280;40903;51.638;7.528;2024-02-15T08:50:41;101044.56;;;12.29;100.00
55010;BME280;40903;51.638;7.528;2024-02-15T08:53:07;101035.25;;;12.30;100.00
55010;BME280;40903;51.638;7.528;2024-02-15T08:55:32;101037.13;;;12.34;100.00
55010;BME280;40903;51.638;7.528;2024-02-15T08:58:01;101034.91;;;12.36;100.00
55010;BME280;40903;51.638;7.528;2024-02-15T09:00:27;101036.53;;;12.37;100.00
55010;BME280;40903;51.638;7.528;2024-02-15T09:02:53;101028.88;;;12.39;100.00
55010;BME280;40903;51.638;7.528;2024-02-15T09:05:19;101033.75;;;12.42;100.00
55010;BME280;40903;51.638;7.528;2024-02-15T09:07:47;101037.59;;;12.41;100.00
55010;BME280;40903;51.638;7.528;2024-02-15T09:10:14;101032.91;;;12.42;100.00
55010;BME280;40903;51.638;7.528;2024-02-15T09:12:41;101036.16;;;12.44;100.00
55010;BME280;40903;51.638;7.528;2024-02-15T09:15:08;101034.25;;;12.44;100.00
55010;BME280;40903;51.638;7.528;2024-02-15T09:17:37;101039.13;;;12.47;100.00
55010;BME280;40903;51.638;7.528;2024-02-15T09:20:14;101039.59;;;12.54;100.00
55010;BME280;40903;51.638;7.528;2024-02-15T09:22:50;101026.88;;;12.63;100.00
55010;BME280;40903;51.638;7.528;2024-02-15T09:25:17;101025.97;;;12.68;100.00
55010;BME280;40903;51.638;7.528;2024-02-15T09:27:43;101036.31;;;12.71;100.00
55010;BME280;40903;51.638;7.528;2024-02-15T09:30:10;101037.94;;;12.72;100.00
55010;BME280;40903;51.638;7.528;2024-02-15T09:32:37;101044.25;;;12.72;100.00
55010;BME280;40903;51.638;7.528;2024-02-15T09:35:03;101046.75;;;12.69;100.00
55010;BME280;40903;51.638;7.528;2024-02-15T09:37:33;101051.94;;;12.70;100.00
55010;BME280;40903;51.638;7.528;2024-02-15T09:39:59;101052.16;;;12.74;100.00
55010;BME280;40903;51.638;7.528;2024-02-15T09:42:29;101050.88;;;12.66;100.00
55010;BME280;40903;51.638;7.528;2024-02-15T09:44:55;101056.88;;;12.68;100.00
55010;BME280;40903;51.638;7.528;2024-02-15T09:47:21;101048.66;;;12.68;100.00
55010;BME280;40903;51.638;7.528;2024-02-15T09:49:48;101038.84;;;12.67;100.00
55010;BME280;40903;51.638;7.528;2024-02-15T09:52:14;101036.31;;;12.71;100.00
55010;BME280;40903;51.638;7.528;2024-02-15T09:54:43;101028.72;;;12.68;100.00
55010;BME280;40903;51.638;7.528;2024-02-15T09:57:09;101036.69;;;12.64;100.00
55010;BME280;40903;51.638;7.528;2024-02-15T09:59:38;101037.22;;;12.66;100.00
55010;BME280;40903;51.638;7.528;2024-02-15T10:02:05;101027.59;;;12.69;100.00
55010;BME280;40903;51.638;7.528;2024-02-15T10:04:39;101031.97;;;12.70;100.00
55010;BME280;40903;51.638;7.528;2024-02-15T10:07:05;101041.56;;;12.67;100.00
55010;BME280;40903;51.638;7.528;2024-02-15T10:09:34;101027.31;;;12.70;100.00
55010;BME280;40903;51.638;7.528;2024-02-15T10:12:02;101018.50;;;12.73;100.00
55010;BME280;40903;51.638;7.528;2024-02-15T10:14:29;101019.81;;;12.76;100.00
55010;BME280;40903;51.638;7.528;2024-02-15T10:16:55;101024.22;;;12.77;100.00
55010;BME280;40903;51.638;7.528;2024-02-15T10:19:21;101029.00;;;12.85;100.00
55010;BME280;40903;51.638;7.528;2024-02-15T10:21:54;101028.09;;;12.89;100.00
55010;BME280;40903;51.638;7.528;2024-02-15T10:24:23;101026.44;;;12.93;100.00
55010;BME280;40903;51.638;7.528;2024-02-15T10:27:00;101019.47;;;13.01;100.00
55010;BME280;40903;51.638;7.528;2024-02-15T10:29:35;101021.00;;;13.07;100.00
55010;BME280;40903;51.638;7.528;2024-02-15T10:32:02;101031.88;;;13.12;100.00
55010;BME280;40903;51.638;7.528;2024-02-15T10:34:28;101027.81;;;13.09;100.00
55010;BME280;40903;51.638;7.528;2024-02-15T10:36:55;101029.44;;;13.10;100.00
55010;BME280;40903;51.638;7.528;2024-02-15T10:39:35;101034.28;;;13.13;100.00
55010;BME280;40903;51.638;7.528;2024-02-15T10:42:00;101038.38;;;13.16;100.00
55010;BME280;40903;51.638;7.528;2024-02-15T10:44:26;101030.16;;;13.16;100.00
55010;BME280;40903;51.638;7.528;2024-02-15T10:46:52;101030.88;;;13.21;100.00
55010;BME280;40903;51.638;7.528;2024-02-15T10:49:22;101027.63;;;13.19;100.00
55010;BME280;40903;51.638;7.528;2024-02-15T10:52:00;101019.09;;;13.21;100.00
55010;BME280;40903;51.638;7.528;2024-02-15T10:54:52;101015.41;;;13.30;100.00
55010;BME280;40903;51.638;7.528;2024-02-15T10:57:21;101019.16;;;13.34;100.00
55010;BME280;40903;51.638;7.528;2024-02-15T10:59:57;101007.59;;;13.37;100.00
55010;BME280;40903;51.638;7.528;2024-02-15T11:02:30;101002.53;;;13.44;100.00
55010;BME280;40903;51.638;7.528;2024-02-15T11:05:01;101011.06;;;13.43;100.00
55010;BME280;40903;51.638;7.528;2024-02-15T11:07:29;101001.00;;;13.52;100.00
55010;BME280;40903;51.638;7.528;2024-02-15T11:09:56;101003.34;;;13.58;100.00
55010;BME280;40903;51.638;7.528;2024-02-15T11:12:23;101007.22;;;13.57;100.00
55010;BME280;40903;51.638;7.528;2024-02-15T11:14:51;101008.84;;;13.58;100.00
55010;BME280;40903;51.638;7.528;2024-02-15T11:20:03;101010.69;;;13.63;100.00
55010;BME280;40903;51.638;7.528;2024-02-15T11:22:34;101012.63;;;13.62;100.00
55010;BME280;40903;51.638;7.528;2024-02-15T11:25:03;101010.69;;;13.63;100.00
55010;BME280;40903;51.638;7.528;2024-02-15T11:27:34;101007.63;;;13.64;100.00
55010;BME280;40903;51.638;7.528;2024-02-15T11:30:02;101001.84;;;13.66;100.00
55010;BME280;40903;51.638;7.528;2024-02-15T11:32:50;100994.94;;;13.68;100.00
55010;BME280;40903;51.638;7.528;2024-02-15T11:35:22;100998.69;;;13.72;100.00
55010;BME280;40903;51.638;7.528;2024-02-15T11:42:43;100988.44;;;13.77;100.00
55010;BME280;40903;51.638;7.528;2024-02-15T11:45:09;100984.91;;;13.77;100.00
55010;BME280;40903;51.638;7.528;2024-02-15T11:47:39;100983.78;;;13.78;100.00
55010;BME280;40903;51.638;7.528;2024-02-15T11:50:10;100978.81;;;13.80;100.00
55010;BME280;40903;51.638;7.528;2024-02-15T11:52:41;100980.94;;;13.83;100.00
55010;BME280;40903;51.638;7.528;2024-02-15T11:55:08;100975.56;;;13.91;100.00
55010;BME280;40903;51.638;7.528;2024-02-15T11:57:39;100975.16;;;13.98;100.00
55010;BME280;40903;51.638;7.528;2024-02-15T12:00:25;100972.09;;;13.99;100.00
55010;BME280;40903;51.638;7.528;2024-02-15T12:03:21;100968.41;;;14.04;100.00
55010;BME280;40903;51.638;7.528;2024-02-15T12:06:06;100962.44;;;14.02;100.00
55010;BME280;40903;51.638;7.528;2024-02-15T12:08:51;100959.09;;;14.05;100.00
55010;BME280;40903;51.638;7.528;2024-02-15T12:11:36;100962.84;;;14.09;100.00
55010;BME280;40903;51.638;7.528;2024-02-15T12:14:20;100960.00;;;14.14;100.00
55010;BME280;40903;51.638;7.528;2024-02-15T12:17:07;100959.91;;;14.19;100.00
55010;BME280;40903;51.638;7.528;2024-02-15T12:20:09;100958.19;;;14.23;100.00
55010;BME280;40903;51.638;7.528;2024-02-15T12:22:46;100954.63;;;14.22;100.00
55010;BME280;40903;51.638;7.528;2024-02-15T12:25:17;100950.44;;;14.25;100.00
55010;BME280;40903;51.638;7.528;2024-02-15T12:27:46;100942.09;;;14.30;100.00
55010;BME280;40903;51.638;7.528;2024-02-15T12:30:18;100939.56;;;14.33;100.00
55010;BME280;40903;51.638;7.528;2024-02-15T12:32:51;100932.13;;;14.34;100.00
55010;BME280;40903;51.638;7.528;2024-02-15T12:35:20;100940.44;;;14.42;100.00
55010;BME280;40903;51.638;7.528;2024-02-15T12:37:48;100936.47;;;14.48;100.00
55010;BME280;40903;51.638;7.528;2024-02-15T12:40:19;100934.41;;;14.54;100.00
55010;BME280;40903;51.638;7.528;2024-02-15T12:42:47;100928.47;;;14.60;100.00
55010;BME280;40903;51.638;7.528;2024-02-15T12:45:20;100921.44;;;14.68;100.00
55010;BME280;40903;51.638;7.528;2024-02-15T12:47:53;100918.06;;;14.71;100.00
55010;BME280;40903;51.638;7.528;2024-02-15T12:50:20;100915.06;;;14.81;100.00
55010;BME280;40903;51.638;7.528;2024-02-15T12:52:50;100920.56;;;14.81;100.00
55010;BME280;40903;51.638;7.528;2024-02-15T12:55:20;100913.63;;;14.83;100.00